createdAt,value
2023-01-10T00:03:05.209Z,56.72
2023-01-10T00:08:10.487Z,56.90
2023-01-10T00:13:26.616Z,56.44
2023-01-10T00:18:31.615Z,56.53
2023-01-10T00:23:35.077Z,56.40
2023-01-10T00:28:39.733Z,55.59
2023-01-10T00:33:44.583Z,55.76
2023-01-10T00:38:48.222Z,55.78
2023-01-10T00:44:00.836Z,55.92
2023-01-10T00:49:11.664Z,56.29
2023-01-10T00:54:15.962Z,56.04
2023-01-10T00:59:20.145Z,56.38
2023-01-10T01:04:24.891Z,55.75
2023-01-10T01:09:28.655Z,55.59
2023-01-10T01:14:31.772Z,55.89
2023-01-10T01:19:36.693Z,55.28
2023-01-10T01:24:40.697Z,55.31
2023-01-10T01:29:44.507Z,55.29
2023-01-10T01:34:49.332Z,54.89
2023-01-10T01:39:53.150Z,54.87
2023-01-10T01:45:14.930Z,54.93
2023-01-10T01:50:24.527Z,54.81
2023-01-10T01:55:32.302Z,54.88
2023-01-10T02:00:36.045Z,54.92
2023-01-10T02:05:43.888Z,54.93
2023-01-10T02:10:54.912Z,54.93
2023-01-10T02:15:58.499Z,54.25
2023-01-10T02:21:34.991Z,54.14
2023-01-10T02:27:17.116Z,54.07
2023-01-10T02:32:43.885Z,54.45
2023-01-10T02:38:01.262Z,53.81
2023-01-10T02:43:10.250Z,53.95
2023-01-10T02:48:15.480Z,52.38
2023-01-10T02:53:23.935Z,53.72
2023-01-10T02:58:41.864Z,53.62
2023-01-10T03:03:53.738Z,53.78
2023-01-10T03:09:04.907Z,53.79
2023-01-10T03:14:13.125Z,53.75
2023-01-10T03:19:22.053Z,53.05
2023-01-10T03:24:30.067Z,53.48
2023-01-10T03:29:38.943Z,53.61
2023-01-10T03:34:43.964Z,54.44
2023-01-10T03:39:59.233Z,53.80
2023-01-10T03:45:08.008Z,54.40
2023-01-10T03:50:16.999Z,53.87
2023-01-10T03:55:23.545Z,53.50
2023-01-10T04:00:27.309Z,53.95
2023-01-10T04:05:32.197Z,54.27
2023-01-10T04:10:35.772Z,54.09
2023-01-10T04:15:39.239Z,53.93
2023-01-10T04:20:44.336Z,54.80
2023-01-10T04:25:48.693Z,55.00
2023-01-10T04:30:52.257Z,55.47
2023-01-10T04:35:57.464Z,55.23
2023-01-10T04:41:01.070Z,56.00
2023-01-10T04:46:04.584Z,56.10
2023-01-10T04:51:09.783Z,56.29
2023-01-10T04:56:19.647Z,55.41
2023-01-10T05:01:25.367Z,56.24
2023-01-10T05:06:30.421Z,55.18
2023-01-10T05:11:34.297Z,56.03
2023-01-10T05:16:38.012Z,56.10
2023-01-10T05:21:43.206Z,55.49
2023-01-10T05:26:46.815Z,56.63
2023-01-10T05:31:52.588Z,56.07
2023-01-10T05:36:57.632Z,56.07
2023-01-10T05:42:02.010Z,55.44
2023-01-10T05:47:05.782Z,56.30
2023-01-10T05:52:10.817Z,55.89
2023-01-10T05:57:14.503Z,55.74
2023-01-10T06:02:18.017Z,55.78
2023-01-10T06:07:23.113Z,55.89
2023-01-10T06:12:26.797Z,56.06
2023-01-10T06:17:30.398Z,57.11
2023-01-10T06:22:35.194Z,55.71
2023-01-10T06:27:41.450Z,56.83
2023-01-10T06:32:44.934Z,57.39
2023-01-10T06:37:50.225Z,58.59
2023-01-10T06:42:53.750Z,58.06
2023-01-10T06:47:57.401Z,59.23
2023-01-10T06:53:03.892Z,59.64
2023-01-10T06:58:07.525Z,58.74
2023-01-10T07:03:11.385Z,58.54
2023-01-10T07:08:16.597Z,59.28
2023-01-10T07:13:20.050Z,58.64
2023-01-10T07:18:23.706Z,58.92
2023-01-10T07:23:28.647Z,58.40
2023-01-10T07:28:34.665Z,58.18
2023-01-10T07:33:37.997Z,59.04
2023-01-10T07:38:43.241Z,58.83
2023-01-10T07:43:46.740Z,59.29
2023-01-10T07:48:50.420Z,58.69
2023-01-10T07:53:55.382Z,58.45
2023-01-10T07:58:59.147Z,58.71
2023-01-10T08:04:02.533Z,57.55
2023-01-10T08:09:07.580Z,57.81
2023-01-10T08:14:11.116Z,57.73
2023-01-10T08:19:17.338Z,56.98
2023-01-10T08:24:22.295Z,56.89
2023-01-10T08:29:25.965Z,57.09
2023-01-10T08:34:29.387Z,56.50
2023-01-10T08:39:35.783Z,56.50
2023-01-10T08:44:39.265Z,56.10
2023-01-10T08:49:42.853Z,56.20
2023-01-10T08:54:47.845Z,56.26
2023-01-10T08:59:51.180Z,57.28
2023-01-10T09:04:56.442Z,57.20
2023-01-10T09:10:01.529Z,57.37
2023-01-10T09:15:08.092Z,56.98
2023-01-10T09:20:12.562Z,56.85
2023-01-10T09:25:17.552Z,57.33
2023-01-10T09:30:21.242Z,57.49
2023-01-10T09:35:25.787Z,58.19
2023-01-10T09:40:43.754Z,57.17
2023-01-10T09:45:55.192Z,57.78
2023-01-10T09:51:24.883Z,57.11
2023-01-10T09:56:31.065Z,57.45
2023-01-10T10:01:37.468Z,58.22
2023-01-10T10:06:41.177Z,58.21
2023-01-10T10:12:01.900Z,57.17
2023-01-10T10:17:20.302Z,58.10
2023-01-10T10:22:33.620Z,58.30
2023-01-10T10:27:48.249Z,57.22
2023-01-10T10:33:07.656Z,57.27
2023-01-10T10:38:16.469Z,56.90
2023-01-10T10:43:25.866Z,56.76
2023-01-10T10:48:31.864Z,57.20
2023-01-10T10:53:36.463Z,57.30
2023-01-10T10:58:43.871Z,57.11
2023-01-10T11:03:50.931Z,56.34
2023-01-10T11:08:58.796Z,55.56
2023-01-10T11:14:05.483Z,56.31
2023-01-10T11:19:23.382Z,56.21
2023-01-10T11:24:33.824Z,55.10
2023-01-10T11:29:45.180Z,55.64
2023-01-10T11:34:55.016Z,54.88
2023-01-10T11:40:21.251Z,55.01
2023-01-10T11:45:29.895Z,54.38
2023-01-10T11:50:37.058Z,54.96
2023-01-10T11:55:40.698Z,53.47
2023-01-10T12:00:49.772Z,52.68
2023-01-10T12:05:55.936Z,53.17
2023-01-10T12:11:02.930Z,53.00
2023-01-10T12:16:23.555Z,52.52
2023-01-10T12:21:33.132Z,51.58
2023-01-10T12:26:37.035Z,51.47
2023-01-10T12:31:42.717Z,50.95
2023-01-10T12:36:58.495Z,51.83
2023-01-10T12:42:33.071Z,51.00
2023-01-10T12:47:49.852Z,51.22
2023-01-10T12:52:57.841Z,50.94
2023-01-10T12:58:04.952Z,51.70
2023-01-10T13:03:14.097Z,50.44
2023-01-10T13:08:20.714Z,51.12
2023-01-10T13:13:33.454Z,51.31
2023-01-10T13:18:38.536Z,50.46
2023-01-10T13:23:49.440Z,50.02
2023-01-10T13:28:57.665Z,51.12
2023-01-10T13:34:06.170Z,50.57
2023-01-10T13:39:24.195Z,50.70
2023-01-10T13:44:27.697Z,50.26
2023-01-10T13:49:47.449Z,50.63
2023-01-10T13:54:58.650Z,50.46
2023-01-10T14:00:20.964Z,50.81
2023-01-10T14:05:25.811Z,50.84
2023-01-10T14:10:32.012Z,50.73
2023-01-10T14:15:41.761Z,50.25
2023-01-10T14:20:57.617Z,50.05
2023-01-10T14:26:01.414Z,50.05
2023-01-10T14:31:09.292Z,50.12
2023-01-10T14:36:20.069Z,49.50
2023-01-10T14:41:32.743Z,50.37
2023-01-10T14:46:46.028Z,49.62
2023-01-10T14:51:52.270Z,49.59
2023-01-10T14:56:57.826Z,50.00
2023-01-10T15:02:03.721Z,49.86
2023-01-10T15:07:13.836Z,49.82
2023-01-10T15:12:18.773Z,50.26
2023-01-10T15:17:23.671Z,50.06
2023-01-10T15:22:31.290Z,49.84
2023-01-10T15:27:36.962Z,50.47
2023-01-10T15:32:41.681Z,50.68
2023-01-10T15:37:52.282Z,50.38
2023-01-10T15:43:12.539Z,49.81
2023-01-10T15:48:28.350Z,50.49
2023-01-10T15:54:07.439Z,49.66
2023-01-10T15:59:23.815Z,50.57
2023-01-10T16:04:27.829Z,49.87
2023-01-10T16:09:33.179Z,50.60
2023-01-10T16:14:36.992Z,49.55
2023-01-10T16:19:40.682Z,50.15
2023-01-10T16:24:47.588Z,49.33
2023-01-10T16:29:52.275Z,50.19
2023-01-10T16:34:55.783Z,50.99
2023-01-10T16:40:00.852Z,50.20
2023-01-10T16:45:04.387Z,49.96
2023-01-10T16:50:09.265Z,50.54
2023-01-10T16:55:17.239Z,49.95
2023-01-10T17:00:21.523Z,50.60
2023-01-10T17:05:25.619Z,50.42
2023-01-10T17:10:31.616Z,50.04
2023-01-10T17:15:36.810Z,50.48
2023-01-10T17:20:40.396Z,50.51
2023-01-10T17:25:47.390Z,50.79
2023-01-10T17:30:50.976Z,50.48
2023-01-10T17:35:56.288Z,50.30
2023-01-10T17:41:03.619Z,50.75
2023-01-10T17:46:08.289Z,50.87
2023-01-10T17:51:14.363Z,51.42
2023-01-10T17:56:19.340Z,50.77
2023-01-10T18:01:25.640Z,50.82
2023-01-10T18:06:29.436Z,51.42
2023-01-10T18:11:34.477Z,51.03
2023-01-10T18:16:38.099Z,50.55
2023-01-10T18:21:41.732Z,51.06
2023-01-10T18:26:48.181Z,50.98
2023-01-10T18:31:51.811Z,51.29
2023-01-10T18:36:55.387Z,51.26
2023-01-10T18:42:00.436Z,51.05
2023-01-10T18:47:04.092Z,50.38
2023-01-10T18:52:08.060Z,50.24
2023-01-10T18:57:13.082Z,50.78
2023-01-10T19:02:17.115Z,51.50
2023-01-10T19:07:20.790Z,50.35
2023-01-10T19:12:25.491Z,51.14
2023-01-10T19:17:30.849Z,50.33
2023-01-10T19:22:34.198Z,50.62
2023-01-10T19:27:39.305Z,49.90
2023-01-10T19:32:42.769Z,50.95
2023-01-10T19:37:46.498Z,50.64
2023-01-10T19:42:51.262Z,50.03
2023-01-10T19:47:54.829Z,50.03
2023-01-10T19:52:58.214Z,50.45
2023-01-10T19:58:03.780Z,49.73
2023-01-10T20:03:08.089Z,49.81
2023-01-10T20:08:11.372Z,50.66
2023-01-10T20:13:16.258Z,51.17
2023-01-10T20:18:19.866Z,49.92
2023-01-10T20:23:23.733Z,49.44
2023-01-10T20:28:28.796Z,49.95
2023-01-10T20:33:34.677Z,49.73
2023-01-10T20:38:39.169Z,49.35
2023-01-10T20:43:44.316Z,49.61
2023-01-10T20:48:49.243Z,49.26
2023-01-10T20:53:52.875Z,49.24
2023-01-10T20:58:58.049Z,49.13
2023-01-10T21:04:02.170Z,48.73
2023-01-10T21:09:06.802Z,48.59
2023-01-10T21:14:13.326Z,48.83
2023-01-10T21:19:17.080Z,48.28
2023-01-10T21:24:23.103Z,47.59
2023-01-10T21:29:28.091Z,47.51
2023-01-10T21:34:31.546Z,48.07
2023-01-10T21:39:35.111Z,47.19
2023-01-10T21:44:39.882Z,47.25
2023-01-10T21:49:43.617Z,47.36
2023-01-10T21:54:47.155Z,46.62
2023-01-10T21:59:52.631Z,47.14
2023-01-10T22:04:56.443Z,46.31
2023-01-10T22:10:00.163Z,46.10
2023-01-10T22:15:05.412Z,45.41
2023-01-10T22:20:10.592Z,46.12
2023-01-10T22:25:14.094Z,45.04
2023-01-10T22:30:19.754Z,45.83
2023-01-10T22:35:26.327Z,44.65
2023-01-10T22:40:29.942Z,44.34
2023-01-10T22:45:34.861Z,44.85
2023-01-10T22:50:39.950Z,44.84
2023-01-10T22:55:43.360Z,44.62
2023-01-10T23:00:50.085Z,44.90
2023-01-10T23:05:55.713Z,44.35
2023-01-10T23:10:59.498Z,43.94
2023-01-10T23:16:07.169Z,44.28
2023-01-10T23:21:11.323Z,44.60
2023-01-10T23:26:16.017Z,44.50
2023-01-10T23:31:23.683Z,45.00
2023-01-10T23:36:27.540Z,44.11
2023-01-10T23:41:31.136Z,44.73
2023-01-10T23:46:36.153Z,44.49
2023-01-10T23:51:40.121Z,44.36
2023-01-10T23:56:43.700Z,44.51
